sensor_id;sensor_type;location;lat;lon;timestamp;temperature;humidity
11454;DHT22;5783;55.174;61.310;2022-10-16T00:02:03;24.90;35.20
11454;DHT22;5783;55.174;61.310;2022-10-16T00:04:32;25.00;35.10
11454;DHT22;5783;55.174;61.310;2022-10-16T00:07:01;25.10;34.70
11454;DHT22;5783;55.174;61.310;2022-10-16T00:09:31;25.10;34.80
11454;DHT22;5783;55.174;61.310;2022-10-16T00:12:00;25.10;34.90
11454;DHT22;5783;55.174;61.310;2022-10-16T00:14:30;25.10;34.80
11454;DHT22;5783;55.174;61.310;2022-10-16T00:17:00;25.10;35.10
11454;DHT22;5783;55.174;61.310;2022-10-16T00:19:29;25.10;35.10
11454;DHT22;5783;55.174;61.310;2022-10-16T00:21:58;25.10;35.00
11454;DHT22;5783;55.174;61.310;2022-10-16T00:24:47;25.10;35.10
11454;DHT22;5783;55.174;61.310;2022-10-16T00:27:16;25.10;35.10
11454;DHT22;5783;55.174;61.310;2022-10-16T00:29:48;25.10;35.20
11454;DHT22;5783;55.174;61.310;2022-10-16T00:32:15;25.10;34.90
11454;DHT22;5783;55.174;61.310;2022-10-16T00:34:45;25.10;34.60
11454;DHT22;5783;55.174;61.310;2022-10-16T00:37:14;25.10;34.90
11454;DHT22;5783;55.174;61.310;2022-10-16T00:39:43;25.10;34.70
11454;DHT22;5783;55.174;61.310;2022-10-16T00:42:32;25.10;34.80
11454;DHT22;5783;55.174;61.310;2022-10-16T00:45:01;25.10;34.70
11454;DHT22;5783;55.174;61.310;2022-10-16T00:47:34;25.10;34.40
11454;DHT22;5783;55.174;61.310;2022-10-16T00:50:27;25.10;34.80
11454;DHT22;5783;55.174;61.310;2022-10-16T00:52:55;25.10;34.70
11454;DHT22;5783;55.174;61.310;2022-10-16T00:55:25;25.10;34.50
11454;DHT22;5783;55.174;61.310;2022-10-16T00:57:56;25.10;34.40
11454;DHT22;5783;55.174;61.310;2022-10-16T01:00:27;25.10;34.70
11454;DHT22;5783;55.174;61.310;2022-10-16T01:02:58;25.10;34.70
11454;DHT22;5783;55.174;61.310;2022-10-16T01:14:05;25.00;34.90
11454;DHT22;5783;55.174;61.310;2022-10-16T01:17:06;25.00;35.10
11454;DHT22;5783;55.174;61.310;2022-10-16T01:20:00;25.00;35.10
11454;DHT22;5783;55.174;61.310;2022-10-16T01:21:57;25.00;35.00
11454;DHT22;5783;55.174;61.310;2022-10-16T01:30:56;24.90;34.80
11454;DHT22;5783;55.174;61.310;2022-10-16T01:35:51;24.90;34.90
11454;DHT22;5783;55.174;61.310;2022-10-16T01:40:54;24.90;35.00
11454;DHT22;5783;55.174;61.310;2022-10-16T01:43:45;24.90;34.80
11454;DHT22;5783;55.174;61.310;2022-10-16T01:46:16;25.00;34.80
11454;DHT22;5783;55.174;61.310;2022-10-16T01:48:47;25.00;34.80
11454;DHT22;5783;55.174;61.310;2022-10-16T01:51:18;25.00;34.80
11454;DHT22;5783;55.174;61.310;2022-10-16T01:53:51;25.00;34.90
11454;DHT22;5783;55.174;61.310;2022-10-16T01:56:21;25.00;34.80
11454;DHT22;5783;55.174;61.310;2022-10-16T02:02:00;25.10;34.80
11454;DHT22;5783;55.174;61.310;2022-10-16T02:05:04;25.00;34.80
11454;DHT22;5783;55.174;61.310;2022-10-16T02:06:59;25.00;34.60
11454;DHT22;5783;55.174;61.310;2022-10-16T02:09:30;25.00;34.50
11454;DHT22;5783;55.174;61.310;2022-10-16T02:14:50;25.00;34.80
11454;DHT22;5783;55.174;61.310;2022-10-16T02:17:19;25.00;34.80
11454;DHT22;5783;55.174;61.310;2022-10-16T02:19:50;25.10;35.00
11454;DHT22;5783;55.174;61.310;2022-10-16T02:22:55;25.10;34.90
11454;DHT22;5783;55.174;61.310;2022-10-16T02:25:12;25.10;34.90
11454;DHT22;5783;55.174;61.310;2022-10-16T02:31:10;25.10;34.50
11454;DHT22;5783;55.174;61.310;2022-10-16T02:33:41;25.00;34.80
11454;DHT22;5783;55.174;61.310;2022-10-16T02:36:12;25.00;34.60
11454;DHT22;5783;55.174;61.310;2022-10-16T02:38:42;25.00;34.70
11454;DHT22;5783;55.174;61.310;2022-10-16T02:41:10;25.00;34.80
11454;DHT22;5783;55.174;61.310;2022-10-16T02:43:39;25.00;35.30
11454;DHT22;5783;55.174;61.310;2022-10-16T02:46:08;25.00;35.30
11454;DHT22;5783;55.174;61.310;2022-10-16T02:48:36;25.00;35.20
11454;DHT22;5783;55.174;61.310;2022-10-16T02:51:06;25.10;35.30
11454;DHT22;5783;55.174;61.310;2022-10-16T02:53:35;25.10;35.30
11454;DHT22;5783;55.174;61.310;2022-10-16T02:56:04;25.10;35.30
11454;DHT22;5783;55.174;61.310;2022-10-16T02:58:34;25.10;35.00
11454;DHT22;5783;55.174;61.310;2022-10-16T03:01:02;25.10;35.10
11454;DHT22;5783;55.174;61.310;2022-10-16T03:03:30;25.10;35.10
11454;DHT22;5783;55.174;61.310;2022-10-16T03:05:59;25.10;35.00
11454;DHT22;5783;55.174;61.310;2022-10-16T03:08:29;25.10;35.00
11454;DHT22;5783;55.174;61.310;2022-10-16T03:10:57;25.10;35.00
11454;DHT22;5783;55.174;61.310;2022-10-16T03:13:26;25.10;34.90
11454;DHT22;5783;55.174;61.310;2022-10-16T03:15:55;25.10;34.80
11454;DHT22;5783;55.174;61.310;2022-10-16T03:18:24;25.10;34.80
11454;DHT22;5783;55.174;61.310;2022-10-16T03:20:53;25.10;34.70
11454;DHT22;5783;55.174;61.310;2022-10-16T03:23:21;25.10;34.90
11454;DHT22;5783;55.174;61.310;2022-10-16T03:25:50;25.10;34.60
11454;DHT22;5783;55.174;61.310;2022-10-16T03:28:20;25.10;34.50
11454;DHT22;5783;55.174;61.310;2022-10-16T03:30:49;25.10;34.50
11454;DHT22;5783;55.174;61.310;2022-10-16T03:33:18;25.00;34.60
11454;DHT22;5783;55.174;61.310;2022-10-16T03:38:35;25.00;34.40
11454;DHT22;5783;55.174;61.310;2022-10-16T03:41:04;25.00;34.30
11454;DHT22;5783;55.174;61.310;2022-10-16T03:43:34;25.10;34.50
11454;DHT22;5783;55.174;61.310;2022-10-16T03:46:03;25.10;34.50
11454;DHT22;5783;55.174;61.310;2022-10-16T03:48:32;25.10;34.30
11454;DHT22;5783;55.174;61.310;2022-10-16T03:51:01;25.10;34.20
11454;DHT22;5783;55.174;61.310;2022-10-16T03:53:31;25.10;34.40
11454;DHT22;5783;55.174;61.310;2022-10-16T03:56:00;25.10;34.60
11454;DHT22;5783;55.174;61.310;2022-10-16T03:58:28;25.10;34.30
11454;DHT22;5783;55.174;61.310;2022-10-16T04:00:57;25.10;34.20
11454;DHT22;5783;55.174;61.310;2022-10-16T04:03:26;25.10;34.20
11454;DHT22;5783;55.174;61.310;2022-10-16T04:05:55;25.10;34.20
11454;DHT22;5783;55.174;61.310;2022-10-16T04:08:24;25.00;34.00
11454;DHT22;5783;55.174;61.310;2022-10-16T04:10:53;25.00;34.20
11454;DHT22;5783;55.174;61.310;2022-10-16T04:13:22;25.00;34.30
11454;DHT22;5783;55.174;61.310;2022-10-16T04:15:51;25.00;34.40
11454;DHT22;5783;55.174;61.310;2022-10-16T04:18:21;25.00;34.30
11454;DHT22;5783;55.174;61.310;2022-10-16T04:20:50;25.00;34.70
11454;DHT22;5783;55.174;61.310;2022-10-16T04:23:19;25.00;34.90
11454;DHT22;5783;55.174;61.310;2022-10-16T04:25:50;24.90;34.90
11454;DHT22;5783;55.174;61.310;2022-10-16T04:28:19;24.90;35.00
11454;DHT22;5783;55.174;61.310;2022-10-16T04:30:49;24.90;35.20
11454;DHT22;5783;55.174;61.310;2022-10-16T04:33:18;24.90;35.10
11454;DHT22;5783;55.174;61.310;2022-10-16T04:35:46;24.90;35.20
11454;DHT22;5783;55.174;61.310;2022-10-16T04:40:46;24.90;35.40
11454;DHT22;5783;55.174;61.310;2022-10-16T04:43:15;24.90;35.40
11454;DHT22;5783;55.174;61.310;2022-10-16T04:45:44;24.90;34.80
11454;DHT22;5783;55.174;61.310;2022-10-16T04:48:13;25.00;35.00
11454;DHT22;5783;55.174;61.310;2022-10-16T04:50:42;25.00;35.00
11454;DHT22;5783;55.174;61.310;2022-10-16T04:53:11;25.00;35.30
11454;DHT22;5783;55.174;61.310;2022-10-16T04:55:41;25.00;35.00
11454;DHT22;5783;55.174;61.310;2022-10-16T04:58:10;25.00;35.10
11454;DHT22;5783;55.174;61.310;2022-10-16T05:00:40;25.00;35.00
11454;DHT22;5783;55.174;61.310;2022-10-16T05:03:09;25.10;35.00
11454;DHT22;5783;55.174;61.310;2022-10-16T05:08:28;24.90;34.50
11454;DHT22;5783;55.174;61.310;2022-10-16T05:10:57;24.80;34.00
11454;DHT22;5783;55.174;61.310;2022-10-16T05:13:26;24.70;33.70
11454;DHT22;5783;55.174;61.310;2022-10-16T05:15:56;24.70;33.50
11454;DHT22;5783;55.174;61.310;2022-10-16T05:18:25;24.50;33.30
11454;DHT22;5783;55.174;61.310;2022-10-16T05:20:54;24.50;33.50
11454;DHT22;5783;55.174;61.310;2022-10-16T05:23:23;24.40;33.30
11454;DHT22;5783;55.174;61.310;2022-10-16T05:26:29;24.40;33.40
11454;DHT22;5783;55.174;61.310;2022-10-16T05:31:14;24.20;33.20
11454;DHT22;5783;55.174;61.310;2022-10-16T05:33:43;24.20;33.30
11454;DHT22;5783;55.174;61.310;2022-10-16T05:36:13;24.10;33.10
11454;DHT22;5783;55.174;61.310;2022-10-16T05:38:42;24.10;34.10
11454;DHT22;5783;55.174;61.310;2022-10-16T05:41:11;24.00;33.60
11454;DHT22;5783;55.174;61.310;2022-10-16T05:43:40;24.00;36.90
11454;DHT22;5783;55.174;61.310;2022-10-16T05:46:09;23.90;38.20
11454;DHT22;5783;55.174;61.310;2022-10-16T05:48:38;23.80;33.50
11454;DHT22;5783;55.174;61.310;2022-10-16T05:53:38;23.70;38.60
11454;DHT22;5783;55.174;61.310;2022-10-16T05:56:10;23.70;34.00
11454;DHT22;5783;55.174;61.310;2022-10-16T05:58:40;23.60;33.80
11454;DHT22;5783;55.174;61.310;2022-10-16T06:01:44;23.60;34.00
11454;DHT22;5783;55.174;61.310;2022-10-16T06:03:43;23.60;34.10
11454;DHT22;5783;55.174;61.310;2022-10-16T06:06:32;23.60;33.70
11454;DHT22;5783;55.174;61.310;2022-10-16T06:09:04;23.50;33.70
11454;DHT22;5783;55.174;61.310;2022-10-16T06:11:33;23.50;33.90
11454;DHT22;5783;55.174;61.310;2022-10-16T06:14:03;23.50;33.90
11454;DHT22;5783;55.174;61.310;2022-10-16T06:16:34;23.50;33.80
11454;DHT22;5783;55.174;61.310;2022-10-16T06:19:05;23.40;33.50
11454;DHT22;5783;55.174;61.310;2022-10-16T06:21:36;23.40;33.60
11454;DHT22;5783;55.174;61.310;2022-10-16T06:24:05;23.30;33.60
11454;DHT22;5783;55.174;61.310;2022-10-16T06:26:34;23.30;33.80
11454;DHT22;5783;55.174;61.310;2022-10-16T06:29:03;23.20;33.80
11454;DHT22;5783;55.174;61.310;2022-10-16T06:31:32;23.20;33.80
11454;DHT22;5783;55.174;61.310;2022-10-16T06:34:01;23.10;33.80
11454;DHT22;5783;55.174;61.310;2022-10-16T06:36:32;23.10;33.90
11454;DHT22;5783;55.174;61.310;2022-10-16T06:39:01;23.10;34.10
11454;DHT22;5783;55.174;61.310;2022-10-16T06:41:31;23.00;34.20
11454;DHT22;5783;55.174;61.310;2022-10-16T06:44:01;23.10;34.40
11454;DHT22;5783;55.174;61.310;2022-10-16T06:46:30;23.00;34.30
11454;DHT22;5783;55.174;61.310;2022-10-16T06:48:59;23.00;35.80
11454;DHT22;5783;55.174;61.310;2022-10-16T06:51:28;23.00;34.70
11454;DHT22;5783;55.174;61.310;2022-10-16T06:53:58;23.00;34.80
11454;DHT22;5783;55.174;61.310;2022-10-16T06:56:28;23.00;34.70
11454;DHT22;5783;55.174;61.310;2022-10-16T06:58:57;22.90;35.10
11454;DHT22;5783;55.174;61.310;2022-10-16T07:01:27;22.90;34.50
11454;DHT22;5783;55.174;61.310;2022-10-16T07:03:56;22.80;37.60
11454;DHT22;5783;55.174;61.310;2022-10-16T07:06:29;22.60;39.70
11454;DHT22;5783;55.174;61.310;2022-10-16T07:08:57;22.80;36.90
11454;DHT22;5783;55.174;61.310;2022-10-16T07:11:26;22.80;34.70
11454;DHT22;5783;55.174;61.310;2022-10-16T07:13:56;22.70;35.00
11454;DHT22;5783;55.174;61.310;2022-10-16T07:16:27;22.70;35.20
11454;DHT22;5783;55.174;61.310;2022-10-16T07:19:00;22.60;41.10
11454;DHT22;5783;55.174;61.310;2022-10-16T07:21:33;22.60;36.70
11454;DHT22;5783;55.174;61.310;2022-10-16T07:24:04;22.60;35.80
11454;DHT22;5783;55.174;61.310;2022-10-16T07:26:35;22.60;37.90
11454;DHT22;5783;55.174;61.310;2022-10-16T07:29:11;22.60;39.90
11454;DHT22;5783;55.174;61.310;2022-10-16T07:31:37;22.50;35.30
11454;DHT22;5783;55.174;61.310;2022-10-16T07:34:07;22.50;35.20
11454;DHT22;5783;55.174;61.310;2022-10-16T07:36:36;22.40;36.10
11454;DHT22;5783;55.174;61.310;2022-10-16T07:39:05;22.40;36.10
11454;DHT22;5783;55.174;61.310;2022-10-16T07:41:35;22.50;36.70
11454;DHT22;5783;55.174;61.310;2022-10-16T07:44:04;22.50;38.00
11454;DHT22;5783;55.174;61.310;2022-10-16T07:46:33;22.40;37.90
11454;DHT22;5783;55.174;61.310;2022-10-16T07:49:04;22.50;38.30
11454;DHT22;5783;55.174;61.310;2022-10-16T07:51:33;22.40;38.30
11454;DHT22;5783;55.174;61.310;2022-10-16T07:54:02;22.50;38.10
11454;DHT22;5783;55.174;61.310;2022-10-16T07:56:32;22.50;38.50
11454;DHT22;5783;55.174;61.310;2022-10-16T07:59:01;22.50;38.50
11454;DHT22;5783;55.174;61.310;2022-10-16T08:01:30;22.50;38.90
11454;DHT22;5783;55.174;61.310;2022-10-16T08:03:59;22.50;38.90
11454;DHT22;5783;55.174;61.310;2022-10-16T08:06:28;22.50;39.00
11454;DHT22;5783;55.174;61.310;2022-10-16T08:08:57;22.50;39.00
11454;DHT22;5783;55.174;61.310;2022-10-16T08:11:26;22.40;38.80
11454;DHT22;5783;55.174;61.310;2022-10-16T08:13:55;22.40;35.30
11454;DHT22;5783;55.174;61.310;2022-10-16T08:16:25;22.30;39.70
11454;DHT22;5783;55.174;61.310;2022-10-16T08:18:54;22.30;41.90
11454;DHT22;5783;55.174;61.310;2022-10-16T08:21:23;22.30;41.30
11454;DHT22;5783;55.174;61.310;2022-10-16T08:23:53;22.30;40.90
11454;DHT22;5783;55.174;61.310;2022-10-16T08:26:24;22.30;40.20
11454;DHT22;5783;55.174;61.310;2022-10-16T08:28:54;22.30;39.30
11454;DHT22;5783;55.174;61.310;2022-10-16T08:31:24;22.30;38.20
11454;DHT22;5783;55.174;61.310;2022-10-16T08:33:55;22.30;37.80
11454;DHT22;5783;55.174;61.310;2022-10-16T08:36:24;22.20;38.20
11454;DHT22;5783;55.174;61.310;2022-10-16T08:38:53;22.30;38.50
11454;DHT22;5783;55.174;61.310;2022-10-16T08:50:13;22.20;40.60
11454;DHT22;5783;55.174;61.310;2022-10-16T08:52:44;22.20;40.80
11454;DHT22;5783;55.174;61.310;2022-10-16T08:55:37;22.20;40.70
11454;DHT22;5783;55.174;61.310;2022-10-16T09:14:06;22.30;34.60
11454;DHT22;5783;55.174;61.310;2022-10-16T09:16:57;22.30;34.80
11454;DHT22;5783;55.174;61.310;2022-10-16T09:22:04;22.20;37.00
11454;DHT22;5783;55.174;61.310;2022-10-16T09:24:32;22.20;38.20
11454;DHT22;5783;55.174;61.310;2022-10-16T09:27:01;22.10;38.30
11454;DHT22;5783;55.174;61.310;2022-10-16T09:29:30;22.10;38.70
11454;DHT22;5783;55.174;61.310;2022-10-16T09:32:22;22.10;38.80
11454;DHT22;5783;55.174;61.310;2022-10-16T09:34:54;22.10;39.10
11454;DHT22;5783;55.174;61.310;2022-10-16T09:37:24;22.10;39.30
11454;DHT22;5783;55.174;61.310;2022-10-16T09:39:55;22.10;39.30
11454;DHT22;5783;55.174;61.310;2022-10-16T09:42:43;22.10;39.60
11454;DHT22;5783;55.174;61.310;2022-10-16T09:45:32;22.20;39.40
11454;DHT22;5783;55.174;61.310;2022-10-16T09:50:33;22.20;38.70
11454;DHT22;5783;55.174;61.310;2022-10-16T09:55:53;22.20;38.30
11454;DHT22;5783;55.174;61.310;2022-10-16T09:58:23;22.20;38.30
11454;DHT22;5783;55.174;61.310;2022-10-16T10:00:53;22.20;38.50
11454;DHT22;5783;55.174;61.310;2022-10-16T10:06:35;22.30;38.10
11454;DHT22;5783;55.174;61.310;2022-10-16T10:09:26;22.30;37.50
11454;DHT22;5783;55.174;61.310;2022-10-16T10:11:59;22.30;38.10
11454;DHT22;5783;55.174;61.310;2022-10-16T10:15:20;22.20;37.60
11454;DHT22;5783;55.174;61.310;2022-10-16T10:17:23;22.20;37.50
11454;DHT22;5783;55.174;61.310;2022-10-16T10:23:15;22.20;37.80
11454;DHT22;5783;55.174;61.310;2022-10-16T10:29:17;22.20;37.80
11454;DHT22;5783;55.174;61.310;2022-10-16T10:40:45;22.10;39.10
11454;DHT22;5783;55.174;61.310;2022-10-16T11:17:25;21.90;39.00
11454;DHT22;5783;55.174;61.310;2022-10-16T11:28:35;21.90;53.40
11454;DHT22;5783;55.174;61.310;2022-10-16T11:31:27;21.70;52.50
11454;DHT22;5783;55.174;61.310;2022-10-16T11:37:06;21.80;48.10
11454;DHT22;5783;55.174;61.310;2022-10-16T11:39:35;21.80;46.00
11454;DHT22;5783;55.174;61.310;2022-10-16T11:56:57;21.50;40.90
11454;DHT22;5783;55.174;61.310;2022-10-16T12:03:11;21.30;41.40
11454;DHT22;5783;55.174;61.310;2022-10-16T12:05:29;21.10;41.90
11454;DHT22;5783;55.174;61.310;2022-10-16T12:08:19;21.20;42.30
11454;DHT22;5783;55.174;61.310;2022-10-16T12:10:49;21.20;42.10
11454;DHT22;5783;55.174;61.310;2022-10-16T12:13:39;21.10;41.90
11454;DHT22;5783;55.174;61.310;2022-10-16T12:16:28;21.20;42.10
11454;DHT22;5783;55.174;61.310;2022-10-16T12:19:17;21.40;42.20
11454;DHT22;5783;55.174;61.310;2022-10-16T12:21:47;21.50;41.80
11454;DHT22;5783;55.174;61.310;2022-10-16T12:24:36;21.60;41.30
11454;DHT22;5783;55.174;61.310;2022-10-16T12:30:20;21.70;41.10
11454;DHT22;5783;55.174;61.310;2022-10-16T12:35:59;21.70;40.80
11454;DHT22;5783;55.174;61.310;2022-10-16T12:38:33;21.70;40.80
11454;DHT22;5783;55.174;61.310;2022-10-16T12:41:40;21.80;40.80
11454;DHT22;5783;55.174;61.310;2022-10-16T12:47:38;21.90;40.70
11454;DHT22;5783;55.174;61.310;2022-10-16T12:52:59;22.00;40.00
11454;DHT22;5783;55.174;61.310;2022-10-16T13:08:09;21.80;39.60
11454;DHT22;5783;55.174;61.310;2022-10-16T13:28:32;21.20;38.90
11454;DHT22;5783;55.174;61.310;2022-10-16T13:31:02;21.20;41.30
11454;DHT22;5783;55.174;61.310;2022-10-16T13:33:52;21.30;42.50
11454;DHT22;5783;55.174;61.310;2022-10-16T13:36:25;21.20;40.70
11454;DHT22;5783;55.174;61.310;2022-10-16T13:39:15;21.30;40.80
11454;DHT22;5783;55.174;61.310;2022-10-16T13:41:45;21.40;40.90
11454;DHT22;5783;55.174;61.310;2022-10-16T13:44:18;21.50;39.80
11454;DHT22;5783;55.174;61.310;2022-10-16T13:46:57;21.60;39.30
11454;DHT22;5783;55.174;61.310;2022-10-16T13:49:18;21.70;39.50
11454;DHT22;5783;55.174;61.310;2022-10-16T13:54:38;22.00;39.20
11454;DHT22;5783;55.174;61.310;2022-10-16T13:57:08;22.00;41.30
11454;DHT22;5783;55.174;61.310;2022-10-16T13:59:37;21.90;39.20
11454;DHT22;5783;55.174;61.310;2022-10-16T14:02:14;21.90;39.20
11454;DHT22;5783;55.174;61.310;2022-10-16T14:04:39;22.10;39.40
11454;DHT22;5783;55.174;61.310;2022-10-16T14:07:13;22.20;39.00
11454;DHT22;5783;55.174;61.310;2022-10-16T14:09:41;22.10;38.10
11454;DHT22;5783;55.174;61.310;2022-10-16T14:12:11;22.00;37.50
11454;DHT22;5783;55.174;61.310;2022-10-16T14:17:33;21.80;39.80
11454;DHT22;5783;55.174;61.310;2022-10-16T14:20:05;22.00;47.00
11454;DHT22;5783;55.174;61.310;2022-10-16T14:25:43;22.30;38.20
11454;DHT22;5783;55.174;61.310;2022-10-16T14:28:32;22.50;38.50
11454;DHT22;5783;55.174;61.310;2022-10-16T14:31:02;22.50;38.60
11454;DHT22;5783;55.174;61.310;2022-10-16T14:33:33;22.70;38.20
11454;DHT22;5783;55.174;61.310;2022-10-16T14:44:52;23.00;55.70
11454;DHT22;5783;55.174;61.310;2022-10-16T14:47:23;23.10;53.90
11454;DHT22;5783;55.174;61.310;2022-10-16T14:49:54;23.10;55.10
11454;DHT22;5783;55.174;61.310;2022-10-16T14:52:25;23.10;38.30
11454;DHT22;5783;55.174;61.310;2022-10-16T14:54:54;23.10;36.90
11454;DHT22;5783;55.174;61.310;2022-10-16T14:57:26;23.20;37.60
11454;DHT22;5783;55.174;61.310;2022-10-16T14:59:55;23.20;36.60
11454;DHT22;5783;55.174;61.310;2022-10-16T15:04:55;23.20;35.90
11454;DHT22;5783;55.174;61.310;2022-10-16T15:07:24;23.30;36.90
11454;DHT22;5783;55.174;61.310;2022-10-16T15:09:53;23.30;45.90
11454;DHT22;5783;55.174;61.310;2022-10-16T15:12:23;23.40;37.00
11454;DHT22;5783;55.174;61.310;2022-10-16T15:14:52;23.40;37.00
11454;DHT22;5783;55.174;61.310;2022-10-16T15:17:21;23.50;37.10
11454;DHT22;5783;55.174;61.310;2022-10-16T15:19:50;23.50;37.00
11454;DHT22;5783;55.174;61.310;2022-10-16T15:22:20;23.50;37.00
11454;DHT22;5783;55.174;61.310;2022-10-16T15:24:50;23.50;37.00
11454;DHT22;5783;55.174;61.310;2022-10-16T15:27:19;23.50;37.00
11454;DHT22;5783;55.174;61.310;2022-10-16T15:29:48;23.50;37.00
11454;DHT22;5783;55.174;61.310;2022-10-16T15:32:17;23.50;37.10
11454;DHT22;5783;55.174;61.310;2022-10-16T15:34:46;23.50;37.00
11454;DHT22;5783;55.174;61.310;2022-10-16T15:37:15;23.60;37.20
11454;DHT22;5783;55.174;61.310;2022-10-16T15:39:45;23.60;36.90
11454;DHT22;5783;55.174;61.310;2022-10-16T15:42:14;23.60;37.00
11454;DHT22;5783;55.174;61.310;2022-10-16T15:44:43;23.60;36.90
11454;DHT22;5783;55.174;61.310;2022-10-16T15:47:12;23.60;37.00
11454;DHT22;5783;55.174;61.310;2022-10-16T15:49:41;23.70;36.90
11454;DHT22;5783;55.174;61.310;2022-10-16T15:52:11;23.70;36.70
11454;DHT22;5783;55.174;61.310;2022-10-16T15:54:40;23.70;36.80
11454;DHT22;5783;55.174;61.310;2022-10-16T15:57:09;23.80;37.00
11454;DHT22;5783;55.174;61.310;2022-10-16T15:59:38;23.80;36.80
11454;DHT22;5783;55.174;61.310;2022-10-16T16:02:09;23.80;36.80
11454;DHT22;5783;55.174;61.310;2022-10-16T16:04:38;23.80;36.60
11454;DHT22;5783;55.174;61.310;2022-10-16T16:07:07;23.80;36.10
11454;DHT22;5783;55.174;61.310;2022-10-16T16:09:36;23.80;36.70
11454;DHT22;5783;55.174;61.310;2022-10-16T16:12:05;23.80;36.80
11454;DHT22;5783;55.174;61.310;2022-10-16T16:14:34;23.80;36.50
11454;DHT22;5783;55.174;61.310;2022-10-16T16:17:03;23.80;36.40
11454;DHT22;5783;55.174;61.310;2022-10-16T16:19:33;23.80;36.20
11454;DHT22;5783;55.174;61.310;2022-10-16T16:22:02;23.90;36.30
11454;DHT22;5783;55.174;61.310;2022-10-16T16:24:31;23.90;36.20
11454;DHT22;5783;55.174;61.310;2022-10-16T16:27:00;23.90;36.20
11454;DHT22;5783;55.174;61.310;2022-10-16T16:29:29;23.90;36.20
11454;DHT22;5783;55.174;61.310;2022-10-16T16:31:59;23.90;36.20
11454;DHT22;5783;55.174;61.310;2022-10-16T16:34:29;23.80;35.30
11454;DHT22;5783;55.174;61.310;2022-10-16T16:36:58;23.80;35.90
11454;DHT22;5783;55.174;61.310;2022-10-16T16:39:27;23.80;36.40
11454;DHT22;5783;55.174;61.310;2022-10-16T16:41:57;23.90;36.40
11454;DHT22;5783;55.174;61.310;2022-10-16T16:44:26;23.90;36.40
11454;DHT22;5783;55.174;61.310;2022-10-16T16:46:55;23.90;36.30
11454;DHT22;5783;55.174;61.310;2022-10-16T16:49:25;23.90;36.30
11454;DHT22;5783;55.174;61.310;2022-10-16T16:51:54;23.90;36.30
11454;DHT22;5783;55.174;61.310;2022-10-16T16:54:23;23.90;36.30
11454;DHT22;5783;55.174;61.310;2022-10-16T16:56:53;23.90;36.20
11454;DHT22;5783;55.174;61.310;2022-10-16T16:59:22;23.90;36.20
11454;DHT22;5783;55.174;61.310;2022-10-16T17:01:51;24.00;36.10
11454;DHT22;5783;55.174;61.310;2022-10-16T17:04:22;23.90;36.10
11454;DHT22;5783;55.174;61.310;2022-10-16T17:07:26;24.00;36.10
11454;DHT22;5783;55.174;61.310;2022-10-16T17:09:24;24.00;36.00
11454;DHT22;5783;55.174;61.310;2022-10-16T17:11:55;24.00;36.00
11454;DHT22;5783;55.174;61.310;2022-10-16T17:14:24;24.00;35.90
11454;DHT22;5783;55.174;61.310;2022-10-16T17:16:53;24.00;35.80
11454;DHT22;5783;55.174;61.310;2022-10-16T17:19:22;24.00;35.90
11454;DHT22;5783;55.174;61.310;2022-10-16T17:21:51;24.00;35.70
11454;DHT22;5783;55.174;61.310;2022-10-16T17:24:21;24.00;35.70
11454;DHT22;5783;55.174;61.310;2022-10-16T17:26:50;24.00;35.50
11454;DHT22;5783;55.174;61.310;2022-10-16T17:29:19;24.00;35.50
11454;DHT22;5783;55.174;61.310;2022-10-16T17:31:48;23.90;35.40
11454;DHT22;5783;55.174;61.310;2022-10-16T17:34:17;23.90;35.80
11454;DHT22;5783;55.174;61.310;2022-10-16T17:36:46;24.00;35.50
11454;DHT22;5783;55.174;61.310;2022-10-16T17:39:16;24.00;35.50
11454;DHT22;5783;55.174;61.310;2022-10-16T17:41:46;24.00;35.30
11454;DHT22;5783;55.174;61.310;2022-10-16T17:44:16;24.00;35.40
11454;DHT22;5783;55.174;61.310;2022-10-16T17:46:48;24.00;35.40
11454;DHT22;5783;55.174;61.310;2022-10-16T17:49:18;24.00;35.40
11454;DHT22;5783;55.174;61.310;2022-10-16T17:52:07;24.00;35.50
11454;DHT22;5783;55.174;61.310;2022-10-16T17:54:36;24.00;35.40
11454;DHT22;5783;55.174;61.310;2022-10-16T17:57:06;24.00;35.40
11454;DHT22;5783;55.174;61.310;2022-10-16T17:59:35;24.00;35.50
11454;DHT22;5783;55.174;61.310;2022-10-16T18:02:04;24.00;35.50
11454;DHT22;5783;55.174;61.310;2022-10-16T18:04:33;24.10;35.60
11454;DHT22;5783;55.174;61.310;2022-10-16T18:07:02;24.10;35.50
11454;DHT22;5783;55.174;61.310;2022-10-16T18:09:32;24.10;35.50
11454;DHT22;5783;55.174;61.310;2022-10-16T18:12:02;24.10;35.60
11454;DHT22;5783;55.174;61.310;2022-10-16T18:14:32;24.10;35.50
11454;DHT22;5783;55.174;61.310;2022-10-16T18:17:01;24.10;35.50
11454;DHT22;5783;55.174;61.310;2022-10-16T18:19:30;24.10;35.50
11454;DHT22;5783;55.174;61.310;2022-10-16T18:21:59;24.10;35.50
11454;DHT22;5783;55.174;61.310;2022-10-16T18:24:28;24.10;35.50
11454;DHT22;5783;55.174;61.310;2022-10-16T18:26:58;24.10;35.40
11454;DHT22;5783;55.174;61.310;2022-10-16T18:29:27;24.10;35.40
11454;DHT22;5783;55.174;61.310;2022-10-16T18:31:56;24.10;35.30
11454;DHT22;5783;55.174;61.310;2022-10-16T18:34:25;24.20;35.30
11454;DHT22;5783;55.174;61.310;2022-10-16T18:36:54;24.20;35.30
11454;DHT22;5783;55.174;61.310;2022-10-16T18:39:23;24.20;35.50
11454;DHT22;5783;55.174;61.310;2022-10-16T18:41:54;24.20;35.00
11454;DHT22;5783;55.174;61.310;2022-10-16T18:44:26;24.20;35.20
11454;DHT22;5783;55.174;61.310;2022-10-16T18:46:56;24.20;35.20
11454;DHT22;5783;55.174;61.310;2022-10-16T18:49:27;24.10;35.50
11454;DHT22;5783;55.174;61.310;2022-10-16T18:51:56;24.20;36.60
11454;DHT22;5783;55.174;61.310;2022-10-16T18:54:27;24.20;34.80
11454;DHT22;5783;55.174;61.310;2022-10-16T18:56:56;24.20;34.70
11454;DHT22;5783;55.174;61.310;2022-10-16T18:59:25;24.20;34.50
11454;DHT22;5783;55.174;61.310;2022-10-16T19:01:54;24.20;34.50
11454;DHT22;5783;55.174;61.310;2022-10-16T19:04:23;24.10;34.40
11454;DHT22;5783;55.174;61.310;2022-10-16T19:06:53;24.10;34.50
11454;DHT22;5783;55.174;61.310;2022-10-16T19:11:53;24.20;34.50
11454;DHT22;5783;55.174;61.310;2022-10-16T19:14:23;24.10;34.40
11454;DHT22;5783;55.174;61.310;2022-10-16T19:16:53;24.10;34.40
11454;DHT22;5783;55.174;61.310;2022-10-16T19:19:22;24.10;34.30
11454;DHT22;5783;55.174;61.310;2022-10-16T19:21:51;24.10;34.70
11454;DHT22;5783;55.174;61.310;2022-10-16T19:24:40;24.10;34.50
11454;DHT22;5783;55.174;61.310;2022-10-16T19:27:09;24.10;34.40
11454;DHT22;5783;55.174;61.310;2022-10-16T19:29:38;24.10;34.60
11454;DHT22;5783;55.174;61.310;2022-10-16T19:32:08;24.10;34.90
11454;DHT22;5783;55.174;61.310;2022-10-16T19:34:37;24.10;34.90
11454;DHT22;5783;55.174;61.310;2022-10-16T19:37:06;24.00;34.90
11454;DHT22;5783;55.174;61.310;2022-10-16T19:39:36;24.10;35.10